Time;durP1;ratioP1;P1;durP2;ratioP2;P2;SDS_P1;SDS_P2;PMS_P1;PMS_P2;Temp;Humidity;BMP_temperature;BMP_pressure;BME280_temperature;BME280_humidity;BME280_pressure;Samples;Min_cycle;Max_cycle;Signal;HPM_P1;HPM_P2
2022/10/22 00:02:26;;;;;;;7.63;5.80;;;19.20;85.70;;;;;;5003587;28;20283;-69
2022/10/22 00:04:55;;;;;;;7.97;5.53;;;19.20;85.50;;;;;;4997849;28;20297;-69
2022/10/22 00:07:23;;;;;;;10.57;5.60;;;19.30;85.40;;;;;;5003273;28;20210;-69
2022/10/22 00:09:50;;;;;;;6.67;5.37;;;19.30;85.10;;;;;;5003529;28;20266;-69
2022/10/22 00:12:18;;;;;;;8.87;5.43;;;19.40;84.80;;;;;;5000409;28;20211;-69
2022/10/22 00:14:45;;;;;;;6.77;5.40;;;19.30;84.50;;;;;;5001282;28;20222;-69
2022/10/22 00:17:12;;;;;;;7.17;5.60;;;19.40;84.40;;;;;;5003919;28;20642;-69
2022/10/22 00:19:39;;;;;;;8.13;5.30;;;19.40;84.30;;;;;;5001683;28;20628;-69
2022/10/22 00:22:08;;;;;;;7.63;5.77;;;19.40;84.20;;;;;;5003982;28;20198;-69
2022/10/22 00:24:37;;;;;;;9.30;7.23;;;19.40;84.20;;;;;;5004460;28;20210;-69
2022/10/22 00:27:06;;;;;;;6.03;4.70;;;19.40;84.20;;;;;;5004602;28;20198;-69
2022/10/22 00:29:33;;;;;;;15.43;6.33;;;19.40;84.40;;;;;;5005863;28;20265;-69
2022/10/22 00:32:01;;;;;;;11.70;5.90;;;19.40;84.50;;;;;;5004650;28;20199;-70
2022/10/22 00:34:28;;;;;;;9.27;6.30;;;19.40;84.60;;;;;;5003688;28;20200;-70
2022/10/22 00:36:55;;;;;;;9.07;5.97;;;19.30;84.70;;;;;;5005620;28;20216;-69
2022/10/22 00:39:24;;;;;;;6.97;5.10;;;19.40;84.90;;;;;;5008459;28;20602;-69
2022/10/22 00:41:52;;;;;;;9.87;6.20;;;19.30;85.00;;;;;;5004402;28;20203;-69
2022/10/22 00:45:17;;;;;;;6.80;5.30;;;19.30;85.00;;;;;;5003733;28;20203;-69
2022/10/22 00:48:03;;;;;;;10.83;5.07;;;19.40;84.90;;;;;;5007201;28;20300;-69
2022/10/22 00:50:38;;;;;;;8.17;5.70;;;19.30;84.70;;;;;;5013768;28;20635;-69
2022/10/22 00:53:22;;;;;;;9.97;5.90;;;19.40;84.70;;;;;;5007912;28;20208;-69
2022/10/22 00:55:52;;;;;;;8.57;5.30;;;19.40;84.80;;;;;;5007230;28;20261;-69
2022/10/22 00:58:23;;;;;;;7.83;5.87;;;19.40;84.80;;;;;;5004839;28;20208;-69
2022/10/22 01:00:50;;;;;;;9.70;5.90;;;19.40;84.90;;;;;;5005635;28;20579;-69
2022/10/22 01:03:17;;;;;;;8.47;5.10;;;19.40;84.90;;;;;;5005201;28;20363;-69
2022/10/22 01:05:58;;;;;;;12.20;5.93;;;19.40;84.80;;;;;;5001961;28;20270;-69
2022/10/22 01:08:35;;;;;;;7.20;5.60;;;19.50;84.90;;;;;;5003202;28;20708;-69
2022/10/22 01:11:09;;;;;;;8.20;4.63;;;19.40;84.70;;;;;;5005302;28;20230;-69
2022/10/22 01:13:53;;;;;;;10.10;5.33;;;19.50;84.70;;;;;;5008260;28;20218;-69
2022/10/22 01:16:31;;;;;;;11.10;5.20;;;19.50;84.70;;;;;;5006689;28;20205;-69
2022/10/22 01:19:14;;;;;;;11.67;5.57;;;19.60;84.60;;;;;;5011754;28;20277;-69
2022/10/22 01:21:45;;;;;;;8.27;4.53;;;19.60;84.40;;;;;;5004304;28;20243;-69
2022/10/22 01:24:18;;;;;;;8.37;5.27;;;19.60;84.30;;;;;;5005091;28;20646;-69
2022/10/22 01:27:22;;;;;;;10.67;5.33;;;19.70;84.20;;;;;;5003215;28;20211;-69
2022/10/22 01:29:54;;;;;;;10.03;5.43;;;19.70;84.10;;;;;;5005554;28;20229;-70
2022/10/22 01:32:26;;;;;;;8.50;5.50;;;19.70;84.10;;;;;;5002208;28;20204;-69
2022/10/22 01:35:00;;;;;;;10.87;5.73;;;19.70;84.20;;;;;;5005043;28;20196;-69
2022/10/22 01:37:34;;;;;;;6.17;5.03;;;19.70;84.20;;;;;;5003482;28;20276;-69
2022/10/22 01:40:02;;;;;;;10.83;6.10;;;19.70;84.30;;;;;;5005085;28;20206;-69
2022/10/22 01:42:29;;;;;;;9.27;5.67;;;19.70;84.40;;;;;;5003573;28;20674;-69
2022/10/22 01:44:56;;;;;;;9.73;5.07;;;19.80;84.60;;;;;;5000832;28;20219;-69
2022/10/22 01:47:38;;;;;;;9.33;4.80;;;19.80;84.80;;;;;;5004616;28;20196;-69
2022/10/22 01:50:31;;;;;;;7.90;5.40;;;19.70;85.00;;;;;;5004758;28;20199;-69
2022/10/22 01:53:10;;;;;;;12.57;5.80;;;19.70;85.10;;;;;;5008618;28;20202;-69
2022/10/22 01:55:57;;;;;;;11.07;5.43;;;19.80;85.20;;;;;;5003478;28;20210;-69
2022/10/22 01:58:37;;;;;;;10.00;5.63;;;19.80;85.30;;;;;;5015192;28;20220;-69
2022/10/22 02:01:22;;;;;;;7.37;5.10;;;19.80;85.60;;;;;;5002870;28;20269;-69
2022/10/22 02:04:03;;;;;;;9.50;4.93;;;19.80;85.80;;;;;;5004322;28;20208;-69
2022/10/22 02:06:31;;;;;;;8.03;5.13;;;19.80;86.10;;;;;;4999193;28;20261;-69
2022/10/22 02:09:01;;;;;;;12.87;5.40;;;19.80;86.20;;;;;;5004672;28;20219;-69
2022/10/22 02:11:29;;;;;;;8.73;5.43;;;19.70;86.20;;;;;;5003558;28;20681;-69
2022/10/22 02:14:00;;;;;;;9.30;4.90;;;19.70;86.30;;;;;;4999989;28;20595;-69
2022/10/22 02:16:41;;;;;;;8.43;4.43;;;19.70;86.30;;;;;;5004614;28;20239;-69
2022/10/22 02:19:14;;;;;;;9.57;4.83;;;19.70;86.20;;;;;;5005107;28;20198;-69
2022/10/22 02:21:42;;;;;;;13.03;5.20;;;19.70;86.10;;;;;;5001188;28;20575;-69
2022/10/22 02:24:09;;;;;;;8.73;4.83;;;19.70;86.00;;;;;;5008399;28;20535;-69
2022/10/22 02:27:02;;;;;;;6.70;4.47;;;19.70;86.10;;;;;;4998824;28;20207;-69
2022/10/22 02:29:34;;;;;;;8.40;4.87;;;19.70;86.30;;;;;;5001453;28;20234;-69
2022/10/22 02:32:04;;;;;;;14.60;5.30;;;19.70;86.30;;;;;;5003156;28;20212;-69
2022/10/22 02:34:32;;;;;;;8.60;4.83;;;19.70;86.30;;;;;;5002887;28;20572;-69
2022/10/22 02:37:01;;;;;;;10.00;4.67;;;19.70;86.20;;;;;;5002435;28;20227;-69
2022/10/22 02:39:29;;;;;;;5.57;4.40;;;19.70;86.20;;;;;;5003962;28;20265;-69
2022/10/22 02:41:56;;;;;;;15.37;5.50;;;19.70;86.00;;;;;;5002649;28;20226;-69
2022/10/22 02:44:23;;;;;;;11.87;4.67;;;19.70;85.90;;;;;;5003793;28;20593;-70
2022/10/22 02:46:51;;;;;;;8.67;4.57;;;19.70;85.80;;;;;;5003973;28;20206;-69
2022/10/22 02:49:18;;;;;;;12.17;4.80;;;19.80;85.70;;;;;;5010402;28;20653;-69
2022/10/22 02:51:45;;;;;;;8.03;4.33;;;19.80;85.60;;;;;;5002006;28;20608;-69
2022/10/22 02:54:12;;;;;;;9.83;5.00;;;19.80;86.20;;;;;;5005274;28;20238;-69
2022/10/22 02:56:39;;;;;;;9.03;4.80;;;19.80;85.40;;;;;;5009476;28;20203;-69
2022/10/22 02:59:06;;;;;;;9.13;5.10;;;19.90;85.40;;;;;;5000765;28;20292;-68
2022/10/22 03:01:32;;;;;;;13.63;5.20;;;19.90;85.30;;;;;;5002439;28;20215;-69
2022/10/22 03:03:59;;;;;;;11.00;4.67;;;19.90;85.20;;;;;;5004250;28;20620;-69
2022/10/22 03:06:26;;;;;;;11.83;5.13;;;19.90;85.30;;;;;;5000134;28;20219;-69
2022/10/22 03:08:54;;;;;;;10.60;5.33;;;19.90;85.30;;;;;;5008093;28;20218;-69
2022/10/22 03:11:21;;;;;;;6.83;4.00;;;19.90;85.40;;;;;;4998849;28;20208;-69
2022/10/22 03:13:48;;;;;;;9.33;4.67;;;19.90;85.60;;;;;;5008658;28;20701;-69
2022/10/22 03:16:16;;;;;;;14.50;6.40;;;19.80;85.70;;;;;;5002148;28;20285;-69
2022/10/22 03:18:43;;;;;;;13.23;4.40;;;19.80;85.70;;;;;;4999815;28;20697;-69
2022/10/22 03:21:25;;;;;;;10.37;4.37;;;19.80;85.70;;;;;;4999158;28;20250;-69
2022/10/22 03:23:53;;;;;;;10.43;4.23;;;19.90;85.80;;;;;;4997833;28;20211;-69
2022/10/22 03:26:21;;;;;;;10.27;4.70;;;19.90;85.50;;;;;;5004695;28;20207;-69
2022/10/22 03:28:48;;;;;;;10.50;3.87;;;19.90;85.40;;;;;;5001147;28;20691;-69
2022/10/22 03:31:15;;;;;;;7.60;4.03;;;19.90;85.30;;;;;;5003169;28;20197;-70
2022/10/22 03:33:42;;;;;;;8.23;4.27;;;20.00;85.10;;;;;;5000081;28;20226;-69
2022/10/22 03:36:09;;;;;;;11.30;4.23;;;20.00;84.90;;;;;;5003010;28;20230;-69
2022/10/22 03:38:38;;;;;;;10.43;4.30;;;20.00;84.70;;;;;;5001551;28;20214;-69
2022/10/22 03:41:06;;;;;;;4.27;3.50;;;20.00;84.70;;;;;;5005281;28;20532;-69
2022/10/22 03:43:35;;;;;;;9.27;4.80;;;20.00;84.50;;;;;;4997778;28;20222;-69
2022/10/22 03:46:02;;;;;;;8.43;3.63;;;20.00;84.30;;;;;;5001414;28;20215;-69
2022/10/22 03:48:29;;;;;;;10.07;4.23;;;20.10;84.10;;;;;;5002250;28;20250;-69
2022/10/22 03:50:56;;;;;;;8.33;4.40;;;20.10;83.90;;;;;;4999269;28;20798;-69
2022/10/22 03:53:23;;;;;;;9.37;4.10;;;20.10;83.80;;;;;;5003424;28;20288;-69
2022/10/22 03:55:50;;;;;;;7.03;3.70;;;20.10;83.80;;;;;;5000843;28;20203;-69
2022/10/22 03:58:17;;;;;;;7.00;3.93;;;20.20;83.80;;;;;;5001225;28;20196;-69
2022/10/22 04:00:44;;;;;;;8.67;3.93;;;20.10;83.90;;;;;;5001510;28;20212;-69
2022/10/22 04:03:11;;;;;;;8.13;4.37;;;20.10;84.00;;;;;;5007611;28;20200;-69
2022/10/22 04:05:38;;;;;;;8.50;5.10;;;20.10;84.20;;;;;;5006439;28;20286;-70
2022/10/22 04:08:05;;;;;;;10.30;4.23;;;20.10;84.30;;;;;;5005855;28;20222;-69
2022/10/22 04:10:32;;;;;;;5.93;3.80;;;20.00;84.40;;;;;;5005627;28;20675;-69
2022/10/22 04:12:59;;;;;;;6.03;4.00;;;20.00;84.50;;;;;;5003867;28;20342;-70
2022/10/22 04:15:27;;;;;;;5.10;3.70;;;20.00;84.70;;;;;;5006704;28;20581;-69
2022/10/22 04:17:55;;;;;;;9.70;4.17;;;20.00;84.80;;;;;;5004174;28;20260;-69
2022/10/22 04:20:22;;;;;;;7.77;3.83;;;20.00;84.90;;;;;;5007738;28;20690;-69
2022/10/22 04:22:49;;;;;;;9.53;3.57;;;20.00;85.00;;;;;;5004307;28;20573;-69
2022/10/22 04:25:16;;;;;;;7.30;3.97;;;20.10;85.00;;;;;;5007140;28;20210;-69
2022/10/22 04:27:43;;;;;;;7.53;3.40;;;20.10;84.80;;;;;;5005309;28;20636;-69
2022/10/22 04:30:10;;;;;;;15.17;4.17;;;20.20;84.70;;;;;;5003632;28;20223;-69
2022/10/22 04:32:37;;;;;;;9.10;3.83;;;20.20;84.50;;;;;;5006223;28;20214;-69
2022/10/22 04:35:04;;;;;;;9.77;4.47;;;20.30;84.20;;;;;;5004086;28;20199;-69
2022/10/22 04:37:31;;;;;;;5.07;2.80;;;20.30;83.80;;;;;;5004141;28;20253;-69
2022/10/22 04:39:58;;;;;;;5.70;3.20;;;20.30;83.60;;;;;;5005977;28;20208;-69
2022/10/22 04:42:26;;;;;;;6.57;3.20;;;20.40;83.50;;;;;;5001690;28;20290;-69
2022/10/22 04:44:53;;;;;;;8.40;3.83;;;20.40;83.20;;;;;;5004982;28;20326;-70
2022/10/22 04:47:20;;;;;;;6.30;3.33;;;20.40;83.10;;;;;;5012766;28;20211;-69
2022/10/22 04:49:47;;;;;;;5.10;3.60;;;20.40;82.90;;;;;;5000494;28;20228;-69
2022/10/22 04:52:14;;;;;;;6.37;3.93;;;20.40;82.80;;;;;;5005278;28;20289;-69
2022/10/22 04:54:41;;;;;;;6.47;3.37;;;20.50;82.70;;;;;;5006921;28;20588;-70
2022/10/22 04:57:08;;;;;;;17.30;4.33;;;20.50;82.60;;;;;;5004475;28;20539;-70
2022/10/22 04:59:35;;;;;;;4.97;3.17;;;20.50;82.60;;;;;;5003614;28;20207;-70
2022/10/22 05:02:02;;;;;;;9.83;3.57;;;20.50;82.40;;;;;;5003837;28;20264;-70
2022/10/22 05:04:29;;;;;;;10.40;3.63;;;20.60;82.30;;;;;;5005961;28;20250;-70
2022/10/22 05:06:56;;;;;;;7.47;3.47;;;20.60;82.30;;;;;;5007425;28;20204;-70
2022/10/22 05:09:23;;;;;;;8.37;3.73;;;20.60;82.20;;;;;;5006278;28;20676;-69
2022/10/22 05:11:51;;;;;;;12.07;3.67;;;20.60;82.10;;;;;;5006414;28;20267;-70
2022/10/22 05:14:23;;;;;;;5.77;3.43;;;20.60;82.00;;;;;;5001317;28;20204;-69
2022/10/22 05:16:51;;;;;;;6.13;3.30;;;20.60;81.90;;;;;;5006213;28;20496;-69
2022/10/22 05:19:25;;;;;;;8.37;3.60;;;20.60;81.90;;;;;;5004210;28;20215;-69
2022/10/22 05:21:54;;;;;;;11.07;4.57;;;20.60;82.00;;;;;;5000287;28;20751;-69
2022/10/22 05:24:21;;;;;;;13.60;3.53;;;20.60;81.90;;;;;;5010052;28;20269;-69
2022/10/22 05:26:50;;;;;;;7.27;3.20;;;20.60;81.90;;;;;;5019230;28;20280;-69
2022/10/22 05:29:17;;;;;;;6.10;2.90;;;20.60;81.90;;;;;;5003055;28;20250;-69
2022/10/22 05:31:45;;;;;;;11.10;3.83;;;20.60;81.90;;;;;;5005596;28;20562;-70
2022/10/22 05:34:13;;;;;;;10.07;2.90;;;20.60;81.90;;;;;;5003186;28;20298;-69
2022/10/22 05:36:40;;;;;;;11.77;3.70;;;20.60;81.90;;;;;;5033474;28;20346;-70
2022/10/22 05:39:07;;;;;;;6.60;3.23;;;20.60;81.90;;;;;;5002728;28;20598;-70
2022/10/22 05:41:35;;;;;;;10.63;3.30;;;20.60;82.00;;;;;;5004308;28;20204;-69
2022/10/22 05:44:03;;;;;;;7.77;3.20;;;20.60;81.90;;;;;;5003575;28;20779;-70
2022/10/22 05:46:34;;;;;;;7.23;2.80;;;20.60;81.90;;;;;;5001693;28;20211;-70
2022/10/22 05:49:04;;;;;;;7.73;3.40;;;20.60;81.90;;;;;;5005238;28;20230;-69
2022/10/22 05:51:33;;;;;;;11.77;3.87;;;20.50;81.90;;;;;;5004709;28;20211;-70
2022/10/22 05:54:02;;;;;;;9.90;3.90;;;20.50;82.00;;;;;;5003598;28;20207;-70
2022/10/22 05:56:30;;;;;;;16.87;3.83;;;20.50;82.10;;;;;;5005340;28;20257;-70
2022/10/22 05:58:59;;;;;;;11.30;4.00;;;20.50;82.30;;;;;;5001493;28;20210;-69
2022/10/22 06:01:29;;;;;;;8.63;3.40;;;20.50;82.60;;;;;;5002508;28;20207;-70
2022/10/22 06:03:58;;;;;;;9.80;3.43;;;20.50;82.80;;;;;;5003318;28;20272;-70
2022/10/22 06:06:28;;;;;;;10.57;3.40;;;20.50;82.80;;;;;;5006673;28;20583;-69
2022/10/22 06:08:58;;;;;;;8.80;3.10;;;20.40;82.90;;;;;;5001499;28;20207;-69
2022/10/22 06:11:25;;;;;;;10.50;3.67;;;20.50;83.00;;;;;;5004871;28;20527;-69
2022/10/22 06:13:57;;;;;;;9.47;3.70;;;20.50;83.00;;;;;;4999803;28;20203;-70
2022/10/22 06:16:24;;;;;;;9.03;3.57;;;20.50;83.10;;;;;;5002564;28;20225;-69
2022/10/22 06:18:51;;;;;;;8.07;3.27;;;20.50;83.10;;;;;;5003922;28;20488;-69
2022/10/22 06:21:18;;;;;;;9.60;3.30;;;20.50;83.10;;;;;;5013847;28;20244;-70
2022/10/22 06:23:45;;;;;;;6.37;3.23;;;20.50;83.10;;;;;;5003312;28;20210;-70
2022/10/22 06:26:12;;;;;;;11.90;4.23;;;20.60;83.10;;;;;;5004517;28;20219;-70
2022/10/22 06:28:39;;;;;;;8.03;3.07;;;20.60;83.10;;;;;;5002596;28;20334;-70
2022/10/22 06:31:06;;;;;;;5.43;3.20;;;20.60;83.10;;;;;;5000993;28;20230;-70
2022/10/22 06:33:36;;;;;;;11.30;3.33;;;20.60;83.10;;;;;;4999316;28;20262;-70
2022/10/22 06:36:07;;;;;;;10.30;3.77;;;20.70;83.10;;;;;;5003350;28;20199;-69
2022/10/22 06:38:34;;;;;;;10.80;3.30;;;20.70;83.00;;;;;;4999242;28;20803;-70
2022/10/22 06:41:06;;;;;;;6.10;2.80;;;20.70;83.00;;;;;;5000539;28;20200;-68
2022/10/22 06:43:33;;;;;;;10.87;3.63;;;20.80;82.90;;;;;;5001735;28;20278;-68
2022/10/22 06:46:02;;;;;;;12.27;3.60;;;20.80;82.60;;;;;;5000877;28;20837;-68
2022/10/22 06:48:30;;;;;;;12.90;4.27;;;20.90;82.60;;;;;;5007772;28;20289;-68
2022/10/22 06:51:01;;;;;;;8.47;3.30;;;20.90;82.50;;;;;;5007468;28;20660;-68
2022/10/22 06:53:29;;;;;;;9.83;3.70;;;21.00;82.50;;;;;;5002499;28;20204;-68
2022/10/22 06:55:56;;;;;;;7.43;3.80;;;21.00;82.40;;;;;;5004408;28;20193;-68
2022/10/22 06:58:23;;;;;;;9.33;4.30;;;21.10;82.40;;;;;;5000463;28;20687;-68
2022/10/22 07:01:06;;;;;;;8.80;3.43;;;21.10;82.30;;;;;;5002620;28;20204;-68
2022/10/22 07:03:34;;;;;;;10.13;3.80;;;21.20;82.30;;;;;;5001554;28;20214;-68
2022/10/22 07:06:02;;;;;;;11.03;3.70;;;21.20;82.30;;;;;;5004083;28;20275;-68
2022/10/22 07:08:29;;;;;;;12.33;4.00;;;21.30;82.20;;;;;;5001983;28;20262;-68
2022/10/22 07:11:03;;;;;;;9.37;3.73;;;21.30;82.10;;;;;;5004143;28;20230;-68
2022/10/22 07:13:30;;;;;;;5.97;3.00;;;21.30;82.10;;;;;;5004900;28;20265;-68
2022/10/22 07:15:57;;;;;;;11.60;3.60;;;21.40;82.10;;;;;;5006112;28;20207;-68
2022/10/22 07:18:24;;;;;;;12.87;4.23;;;21.40;82.00;;;;;;5003661;28;20613;-68
2022/10/22 07:20:51;;;;;;;6.77;3.10;;;21.50;81.90;;;;;;5001775;28;20251;-68
2022/10/22 07:23:18;;;;;;;6.47;3.30;;;21.50;82.40;;;;;;5002804;28;20203;-68
2022/10/22 07:25:46;;;;;;;16.17;4.10;;;21.50;81.60;;;;;;5001886;28;20218;-68
2022/10/22 07:28:13;;;;;;;9.27;3.37;;;21.50;81.50;;;;;;5009428;28;20209;-68
2022/10/22 07:30:40;;;;;;;5.50;3.20;;;21.60;81.50;;;;;;4999223;28;20554;-68
2022/10/22 07:33:08;;;;;;;8.77;3.57;;;21.60;81.50;;;;;;4998646;28;20263;-68
2022/10/22 07:35:37;;;;;;;10.00;3.30;;;21.60;81.40;;;;;;5001684;28;20227;-69
2022/10/22 07:38:04;;;;;;;12.63;3.73;;;21.60;81.40;;;;;;4999270;28;20280;-68
2022/10/22 07:40:32;;;;;;;10.90;3.57;;;21.70;81.50;;;;;;5006580;28;20656;-68
2022/10/22 07:43:00;;;;;;;9.13;4.03;;;21.70;81.40;;;;;;5003328;28;20292;-68
2022/10/22 07:45:27;;;;;;;9.57;3.70;;;21.70;81.20;;;;;;5002528;28;20633;-69
2022/10/22 07:47:54;;;;;;;9.33;3.93;;;21.70;80.90;;;;;;5007216;28;20210;-68
2022/10/22 07:50:21;;;;;;;4.97;3.37;;;21.80;80.90;;;;;;5002621;28;20282;-68
2022/10/22 07:52:49;;;;;;;9.13;2.93;;;21.80;80.70;;;;;;5001005;28;20195;-68
2022/10/22 07:55:16;;;;;;;6.53;3.27;;;21.80;80.60;;;;;;5002821;28;20216;-68
2022/10/22 07:57:43;;;;;;;6.00;2.80;;;21.80;80.50;;;;;;5001852;28;20220;-68
2022/10/22 08:00:10;;;;;;;8.13;3.10;;;21.90;80.50;;;;;;5002922;28;20211;-68
2022/10/22 08:02:37;;;;;;;9.20;3.27;;;21.90;81.00;;;;;;5000886;28;20224;-68
2022/10/22 08:05:05;;;;;;;7.07;3.30;;;22.00;80.40;;;;;;5003620;28;20199;-68
2022/10/22 08:07:33;;;;;;;5.63;2.90;;;22.10;80.40;;;;;;5004306;28;20219;-68
2022/10/22 08:10:00;;;;;;;6.63;3.13;;;22.10;80.20;;;;;;5001675;28;20216;-68
2022/10/22 08:12:27;;;;;;;8.50;2.70;;;22.20;80.10;;;;;;5005207;28;20197;-68
2022/10/22 08:14:54;;;;;;;10.17;3.30;;;22.20;79.90;;;;;;4997867;28;20211;-68
2022/10/22 08:17:21;;;;;;;6.93;2.63;;;22.30;79.60;;;;;;4999238;28;20289;-68
2022/10/22 08:19:48;;;;;;;5.53;2.53;;;22.40;79.50;;;;;;5003962;28;20209;-66
2022/10/22 08:22:15;;;;;;;8.00;2.97;;;22.40;79.30;;;;;;5000363;28;20669;-68
2022/10/22 08:24:42;;;;;;;7.70;3.17;;;22.50;79.20;;;;;;5001513;28;20213;-68
2022/10/22 08:27:09;;;;;;;6.37;2.90;;;22.60;79.00;;;;;;5007765;28;20289;-68
2022/10/22 08:29:36;;;;;;;11.13;2.53;;;22.70;78.70;;;;;;5001459;28;20649;-69
2022/10/22 08:32:04;;;;;;;8.20;3.00;;;22.70;78.50;;;;;;4999529;28;20208;-68
2022/10/22 08:34:31;;;;;;;5.10;2.70;;;22.80;78.30;;;;;;5001219;28;20235;-68
2022/10/22 08:36:58;;;;;;;4.87;3.40;;;22.90;77.90;;;;;;5001685;28;20201;-69
2022/10/22 08:39:25;;;;;;;6.50;3.50;;;22.90;77.60;;;;;;5002843;28;20196;-68
2022/10/22 08:42:04;;;;;;;4.57;2.57;;;23.00;77.30;;;;;;5003404;28;20625;-68
2022/10/22 08:45:00;;;;;;;3.30;2.57;;;23.00;77.10;;;;;;5001880;28;20204;-68
2022/10/22 08:47:45;;;;;;;7.07;2.97;;;23.10;76.90;;;;;;5007056;28;20518;-68
2022/10/22 08:50:18;;;;;;;6.93;2.60;;;23.10;76.70;;;;;;5003872;28;20559;-68
2022/10/22 08:52:51;;;;;;;2.93;2.23;;;23.10;76.50;;;;;;5007189;28;20196;-68
2022/10/22 08:55:19;;;;;;;5.60;2.60;;;23.20;76.40;;;;;;5001938;28;20204;-68
2022/10/22 08:57:57;;;;;;;3.63;2.57;;;23.30;76.40;;;;;;5006919;28;20204;-68
2022/10/22 09:00:30;;;;;;;6.00;2.70;;;23.40;76.20;;;;;;5004034;28;20255;-68
2022/10/22 09:03:18;;;;;;;8.63;3.33;;;23.40;75.90;;;;;;5004845;28;20201;-68
2022/10/22 09:05:51;;;;;;;8.80;4.90;;;23.50;75.50;;;;;;5006795;28;20270;-68
2022/10/22 09:08:19;;;;;;;6.37;3.43;;;23.60;75.20;;;;;;5005822;28;20196;-68
2022/10/22 09:11:01;;;;;;;5.93;3.60;;;23.60;75.00;;;;;;5004269;28;20220;-68
2022/10/22 09:13:29;;;;;;;7.37;3.20;;;23.60;74.90;;;;;;5004142;28;20600;-68
2022/10/22 09:16:12;;;;;;;12.80;4.80;;;23.70;75.30;;;;;;5001521;28;20197;-68
2022/10/22 09:18:48;;;;;;;6.37;3.63;;;23.70;74.70;;;;;;5002730;28;20204;-68
2022/10/22 09:21:46;;;;;;;10.67;4.27;;;23.70;74.50;;;;;;5006291;28;20239;-68
2022/10/22 09:24:38;;;;;;;15.27;4.27;;;23.70;74.10;;;;;;5012961;28;20544;-68
2022/10/22 09:27:19;;;;;;;8.90;4.33;;;23.70;74.10;;;;;;5006706;28;20266;-68
2022/10/22 09:29:47;;;;;;;7.10;4.30;;;23.80;73.90;;;;;;5004814;28;20197;-68
2022/10/22 09:32:15;;;;;;;10.47;4.93;;;23.80;73.60;;;;;;5011249;28;20221;-68
2022/10/22 09:34:47;;;;;;;11.27;5.13;;;23.80;73.30;;;;;;5005249;28;20251;-68
2022/10/22 09:37:18;;;;;;;11.47;4.43;;;23.80;73.30;;;;;;5013812;28;20204;-68
2022/10/22 09:39:50;;;;;;;9.10;4.70;;;23.90;73.10;;;;;;5005746;28;20239;-68
2022/10/22 09:42:19;;;;;;;6.93;3.53;;;23.90;72.90;;;;;;5006802;28;20286;-68
2022/10/22 09:44:58;;;;;;;6.90;3.97;;;23.90;72.80;;;;;;5011635;28;20235;-68
2022/10/22 09:47:38;;;;;;;7.17;3.67;;;24.00;72.40;;;;;;5003108;28;20200;-68
2022/10/22 09:50:40;;;;;;;11.70;4.03;;;24.10;72.20;;;;;;5005351;28;20653;-69
2022/10/22 09:53:27;;;;;;;10.57;3.87;;;24.10;71.80;;;;;;5009676;28;20195;-69
2022/10/22 09:55:58;;;;;;;7.80;3.70;;;24.20;71.70;;;;;;5004634;28;20250;-68
2022/10/22 09:58:25;;;;;;;8.60;4.20;;;24.20;71.60;;;;;;5002895;28;20193;-68
2022/10/22 10:00:57;;;;;;;8.97;3.67;;;24.30;71.60;;;;;;5004592;28;20536;-68
2022/10/22 10:03:27;;;;;;;7.53;3.50;;;24.30;71.60;;;;;;5035618;28;20223;-68
2022/10/22 10:05:57;;;;;;;7.07;4.03;;;24.40;71.40;;;;;;5005826;28;20214;-68
2022/10/22 10:08:30;;;;;;;9.77;4.87;;;24.50;71.00;;;;;;5000564;28;20266;-68
2022/10/22 10:11:41;;;;;;;11.50;4.73;;;24.60;70.80;;;;;;5006942;28;20294;-68
2022/10/22 10:14:11;;;;;;;7.63;4.60;;;24.70;70.50;;;;;;5014782;28;20216;-68
2022/10/22 10:16:44;;;;;;;9.40;4.27;;;24.80;70.30;;;;;;5003829;28;20639;-68
2022/10/22 10:19:16;;;;;;;9.10;4.20;;;24.80;70.20;;;;;;5010306;28;20584;-68
2022/10/22 10:21:58;;;;;;;12.13;4.23;;;24.90;69.90;;;;;;5003758;28;20553;-68
2022/10/22 10:24:32;;;;;;;9.63;4.67;;;24.90;69.30;;;;;;5000654;28;20684;-68
2022/10/22 10:27:32;;;;;;;14.47;4.77;;;25.00;69.30;;;;;;5006296;28;20198;-68
2022/10/22 10:30:14;;;;;;;12.27;5.07;;;25.00;69.20;;;;;;5007008;28;20223;-69
2022/10/22 10:33:04;;;;;;;10.63;4.37;;;25.10;69.20;;;;;;5005185;28;20197;-68
2022/10/22 10:35:43;;;;;;;12.10;4.30;;;25.30;68.60;;;;;;5005252;28;20203;-68
2022/10/22 10:38:19;;;;;;;11.27;5.20;;;25.50;68.40;;;;;;5002713;28;20211;-68
2022/10/22 10:40:52;;;;;;;10.27;3.57;;;25.70;68.00;;;;;;5002647;28;20208;-68
2022/10/22 10:44:10;;;;;;;12.40;4.17;;;25.90;67.50;;;;;;5004107;28;20260;-68
2022/10/22 10:47:08;;;;;;;14.70;3.60;;;26.00;66.70;;;;;;5014967;28;20225;-69
2022/10/22 10:49:35;;;;;;;8.67;4.37;;;26.10;66.30;;;;;;5003860;28;20200;-68
2022/10/22 10:52:43;;;;;;;12.30;3.90;;;26.20;66.30;;;;;;5000970;28;20597;-68
2022/10/22 10:55:27;;;;;;;13.20;4.57;;;26.20;65.70;;;;;;5003967;28;20207;-68
2022/10/22 10:58:16;;;;;;;10.83;4.27;;;26.30;65.70;;;;;;5001075;28;20629;-69
2022/10/22 11:01:00;;;;;;;9.13;4.10;;;26.30;65.40;;;;;;5002149;28;20269;-69
2022/10/22 11:03:33;;;;;;;7.63;3.63;;;26.40;65.50;;;;;;5009146;28;20236;-69
2022/10/22 11:06:18;;;;;;;7.90;4.20;;;26.40;65.20;;;;;;5000714;28;20204;-68
2022/10/22 11:08:59;;;;;;;7.57;3.80;;;26.50;65.00;;;;;;5031836;28;20208;-68
2022/10/22 11:11:48;;;;;;;9.17;3.73;;;26.50;65.10;;;;;;5000758;28;20536;-68
2022/10/22 11:14:37;;;;;;;11.03;3.73;;;26.40;65.10;;;;;;5003317;28;20286;-69
2022/10/22 11:17:14;;;;;;;7.10;4.13;;;26.30;65.50;;;;;;5004366;28;20219;-68
2022/10/22 11:20:00;;;;;;;10.07;4.00;;;26.30;65.50;;;;;;5002859;28;20211;-68
2022/10/22 11:22:42;;;;;;;9.87;4.13;;;26.40;65.50;;;;;;5004455;28;20203;-68
2022/10/22 11:25:34;;;;;;;6.70;3.13;;;26.50;64.70;;;;;;5003505;28;20286;-68
2022/10/22 11:28:35;;;;;;;7.47;3.00;;;26.60;64.30;;;;;;5007111;28;20282;-68
2022/10/22 11:31:16;;;;;;;8.33;3.53;;;26.60;64.00;;;;;;5000368;28;20233;-68
2022/10/22 11:34:03;;;;;;;9.60;3.03;;;26.70;63.90;;;;;;5002612;28;20519;-68
2022/10/22 11:36:48;;;;;;;10.90;4.00;;;26.70;64.20;;;;;;5002820;28;20213;-69
2022/10/22 11:39:37;;;;;;;9.83;3.70;;;26.60;64.30;;;;;;5003885;28;20201;-69
2022/10/22 11:42:08;;;;;;;5.83;2.83;;;26.60;64.50;;;;;;5010958;28;20211;-69
2022/10/22 11:44:46;;;;;;;9.33;3.50;;;26.60;64.80;;;;;;5001303;28;20206;-69
2022/10/22 11:47:23;;;;;;;12.03;3.57;;;26.70;64.70;;;;;;5000259;28;20228;-69
2022/10/22 11:49:58;;;;;;;6.20;2.77;;;26.90;64.70;;;;;;5003387;28;20541;-69
2022/10/22 11:52:47;;;;;;;5.17;2.50;;;27.10;63.80;;;;;;5001330;28;20224;-69
2022/10/22 11:55:29;;;;;;;8.87;3.20;;;27.20;62.90;;;;;;5039707;28;20206;-69
2022/10/22 11:57:59;;;;;;;5.33;2.70;;;27.30;62.10;;;;;;4996006;28;20205;-68
2022/10/22 12:00:55;;;;;;;9.50;3.27;;;27.40;61.90;;;;;;5015179;28;20242;-69
2022/10/22 12:03:31;;;;;;;6.73;2.80;;;27.30;61.00;;;;;;5001476;28;20649;-69
2022/10/22 12:06:10;;;;;;;7.83;3.60;;;27.20;61.60;;;;;;5002089;28;20204;-69
2022/10/22 12:08:48;;;;;;;11.47;3.27;;;27.20;62.00;;;;;;5001561;28;20192;-69
2022/10/22 12:11:19;;;;;;;8.50;4.00;;;27.30;62.20;;;;;;4999949;28;20209;-69
2022/10/22 12:14:25;;;;;;;10.93;4.20;;;27.40;61.70;;;;;;5000925;28;20255;-69
2022/10/22 12:17:01;;;;;;;10.13;4.10;;;27.70;61.70;;;;;;5029562;28;20558;-69
2022/10/22 12:19:46;;;;;;;10.70;3.57;;;27.80;61.10;;;;;;5004490;28;20646;-69
2022/10/22 12:22:18;;;;;;;8.60;3.30;;;28.00;61.00;;;;;;5003519;28;20243;-69
2022/10/22 12:24:50;;;;;;;11.33;4.07;;;28.10;60.60;;;;;;5012746;28;20207;-69
2022/10/22 12:27:26;;;;;;;11.43;4.17;;;28.00;60.40;;;;;;5004228;28;20207;-69
2022/10/22 12:29:59;;;;;;;8.37;4.07;;;28.00;60.30;;;;;;5006448;28;20206;-69
2022/10/22 12:32:34;;;;;;;20.37;8.77;;;28.00;59.90;;;;;;5002951;28;20266;-69
2022/10/22 12:35:15;;;;;;;7.57;4.07;;;28.00;59.90;;;;;;5003953;28;20265;-69
2022/10/22 12:37:42;;;;;;;15.63;6.10;;;28.00;60.00;;;;;;5005240;28;20199;-69
2022/10/22 12:40:22;;;;;;;12.80;4.63;;;28.00;60.20;;;;;;5004416;28;20195;-69
2022/10/22 12:42:53;;;;;;;10.90;4.30;;;27.90;60.30;;;;;;5001744;28;20586;-69
2022/10/22 12:45:25;;;;;;;13.27;4.97;;;27.80;60.70;;;;;;5002877;28;20228;-69
2022/10/22 12:47:57;;;;;;;24.63;9.17;;;27.70;61.20;;;;;;5003566;28;20204;-69
2022/10/22 12:50:39;;;;;;;9.50;4.60;;;27.70;62.40;;;;;;5004178;28;20246;-67
2022/10/22 12:53:24;;;;;;;9.00;4.57;;;27.80;61.00;;;;;;5005010;28;20578;-66
2022/10/22 12:55:53;;;;;;;11.90;7.53;;;27.80;60.40;;;;;;5007957;28;20204;-63
2022/10/22 12:58:26;;;;;;;14.17;7.10;;;27.70;60.70;;;;;;5004322;28;20203;-65
2022/10/22 13:00:56;;;;;;;16.87;7.13;;;27.50;60.90;;;;;;5002782;28;20208;-64
2022/10/22 13:03:31;;;;;;;17.33;7.23;;;27.30;61.50;;;;;;5001095;28;20248;-69
2022/10/22 13:06:24;;;;;;;13.43;5.97;;;27.10;62.10;;;;;;5004599;28;20197;-67
2022/10/22 13:09:17;;;;;;;17.90;6.90;;;27.00;62.30;;;;;;5004978;28;20204;-63
2022/10/22 13:12:00;;;;;;;12.33;7.43;;;27.00;62.40;;;;;;5005573;28;20257;-67
2022/10/22 13:14:28;;;;;;;15.53;8.80;;;26.90;62.90;;;;;;5003302;28;20204;-67